Pagrindinis puslapis
METAR-TAF:

METAR-TAF

Oro uostai :

Sundsvalis-Herniosandas, Švedija

platuma: 62-32N, ilguma: 017-27E, Aukštis: 4 m

Dabartinis oras

Ataskaita buvo paskelbta 31 minutes, ne 03:20 UTC
Vėjas 3 kt iš Šiaurės Vakarų
Temperatūra 12°C
Drėgmė 94%
Slėgis 1013 hPa
Matomumas 10 km arba daugiau

METAR: ESNN 250320Z AUTO 32003KT 9999 NCD 12/11 Q1013

Laikas: 05:51 (03:51 UTC)

Prognozė

Ataskaita buvo paskelbta 16 valandos ir 21 minutes, ne 11:30 UTC
Prognozė galioja nuo 24 metu 12 UTC su 24 metu 16 UTC
Vėjas 12 kt iš Pietų/Pietryčių
Matomumas 10 km arba daugiau
nėra debesų žemiau 1500 m ir nėra kamuolinių lietaus debesų

TAF: ESNN 241130Z 2412/2416 15012KT CAVOK

Orai ataskaitas ir orų prognozės (METAR, TAF).

turimą stotys yra geltonos ir raudonos taškus žemėlapyje.

Perkelti pele per norėdami pamatyti stoties vardą.

Tada spustelėkite, norėdami matyti oro stebėjimo ir prognozės.

Norėdami pakeisti žemėlapį: spustelėkite ant žalios mygtukų su juodo kryžiaus žemyn,; žalią mygtuką su brūkšneliu, jei norite nutolinti; arba žalių rodyklių gretimoms žemėlapius.


METAR-TAF: